createdAt,value
2019-04-30T00:00:06.165Z,35.65
2019-04-30T00:01:07.407Z,35.56
2019-04-30T00:02:05.686Z,35.08
2019-04-30T00:03:06.781Z,35.27
2019-04-30T00:04:05.751Z,35.27
2019-04-30T00:05:05.470Z,35.75
2019-04-30T00:06:07.230Z,36.22
2019-04-30T00:07:05.637Z,36.70
2019-04-30T00:08:05.814Z,36.98
2019-04-30T00:09:05.373Z,36.79
2019-04-30T00:10:06.024Z,39.55
2019-04-30T00:11:05.360Z,41.46
2019-04-30T00:12:05.609Z,42.88
2019-04-30T00:13:05.999Z,43.54
2019-04-30T00:14:05.629Z,44.49
2019-04-30T00:15:06.086Z,45.23
2019-04-30T00:16:05.368Z,44.47
2019-04-30T00:17:03.632Z,43.90
2019-04-30T00:18:05.415Z,44.19
2019-04-30T00:19:03.437Z,43.43
2019-04-30T00:20:05.208Z,43.05
2019-04-30T00:21:05.266Z,42.57
2019-04-30T00:22:03.143Z,41.43
2019-04-30T00:23:05.036Z,41.81
2019-04-30T00:24:06.257Z,41.81
2019-04-30T00:25:02.846Z,42.19
2019-04-30T00:26:06.277Z,41.81
2019-04-30T00:27:02.665Z,41.43
2019-04-30T00:28:05.248Z,40.67
2019-04-30T00:29:02.456Z,40.86
2019-04-30T00:30:07.309Z,40.29
2019-04-30T00:31:02.260Z,39.91
2019-04-30T00:32:04.430Z,39.91
2019-04-30T00:33:02.068Z,39.72
2019-04-30T00:34:01.963Z,39.53
2019-04-30T00:35:01.869Z,39.61
2019-04-30T00:36:01.766Z,39.62
2019-04-30T00:37:01.682Z,39.62
2019-04-30T00:38:01.569Z,39.42
2019-04-30T00:39:01.475Z,39.89
2019-04-30T00:40:01.376Z,39.70
2019-04-30T00:41:01.907Z,39.70
2019-04-30T00:42:01.187Z,39.61
2019-04-30T00:43:05.278Z,39.51
2019-04-30T00:44:00.978Z,39.70
2019-04-30T00:45:06.679Z,39.51
2019-04-30T00:46:00.780Z,38.75
2019-04-30T00:47:05.031Z,38.65
2019-04-30T00:48:00.596Z,38.18
2019-04-30T00:49:09.299Z,37.61
2019-04-30T00:50:00.546Z,37.04
2019-04-30T00:51:00.286Z,35.90
2019-04-30T00:52:00.206Z,34.48
2019-04-30T00:53:00.090Z,33.34
2019-04-30T00:53:59.988Z,32.57
2019-04-30T00:55:00.370Z,31.63
2019-04-30T00:55:59.796Z,31.15
2019-04-30T00:57:06.300Z,31.92
2019-04-30T00:57:59.594Z,32.77
2019-04-30T00:59:02.431Z,33.15
2019-04-30T00:59:59.408Z,32.86
2019-04-30T01:00:59.805Z,33.24
2019-04-30T01:01:59.213Z,33.53
2019-04-30T01:03:00.807Z,33.34
2019-04-30T01:03:59.001Z,32.96
2019-04-30T01:05:05.258Z,32.96
2019-04-30T01:05:58.801Z,33.05
2019-04-30T01:07:00.280Z,32.86
2019-04-30T01:07:58.622Z,31.92
2019-04-30T01:09:05.375Z,31.92
2019-04-30T01:09:58.406Z,31.15
2019-04-30T01:10:59.753Z,31.15
2019-04-30T01:11:58.211Z,30.96
2019-04-30T01:13:01.760Z,31.25
2019-04-30T01:13:59.081Z,31.23
2019-04-30T01:14:58.999Z,32.86
2019-04-30T01:15:58.815Z,33.80
2019-04-30T01:16:59.430Z,35.22
2019-04-30T01:17:59.296Z,35.88
2019-04-30T01:18:58.642Z,35.98
2019-04-30T01:19:59.160Z,35.69
2019-04-30T01:20:58.648Z,35.22
2019-04-30T01:21:57.221Z,34.94
2019-04-30T01:22:58.679Z,34.36
2019-04-30T01:23:59.035Z,34.46
2019-04-30T01:25:02.850Z,34.84
2019-04-30T01:25:58.476Z,35.31
2019-04-30T01:27:00.774Z,35.03
2019-04-30T01:27:58.491Z,35.60
2019-04-30T01:29:00.528Z,36.17
2019-04-30T01:29:56.426Z,35.60
2019-04-30T01:30:58.732Z,35.60
2019-04-30T01:31:56.229Z,34.94
2019-04-30T01:32:56.931Z,34.46
2019-04-30T01:33:56.028Z,34.46
2019-04-30T01:34:55.929Z,33.61
2019-04-30T01:35:55.831Z,33.32
2019-04-30T01:36:55.733Z,32.65
2019-04-30T01:37:55.758Z,32.84
2019-04-30T01:38:55.535Z,32.65
2019-04-30T01:39:55.435Z,32.46
2019-04-30T01:40:55.335Z,32.28
2019-04-30T01:41:55.235Z,32.28
2019-04-30T01:42:55.151Z,32.46
2019-04-30T01:43:55.037Z,31.80
2019-04-30T01:44:55.045Z,31.90
2019-04-30T01:45:54.837Z,31.71
2019-04-30T01:46:54.740Z,31.71
2019-04-30T01:47:54.789Z,31.52
2019-04-30T01:48:54.545Z,30.66
2019-04-30T01:49:55.811Z,30.00
2019-04-30T01:50:54.342Z,29.24
2019-04-30T01:51:57.450Z,29.05
2019-04-30T01:52:54.161Z,27.91
2019-04-30T01:53:54.047Z,27.81
2019-04-30T01:54:53.945Z,26.96
2019-04-30T01:55:53.848Z,26.86
2019-04-30T01:56:53.752Z,26.39
2019-04-30T01:57:53.649Z,26.01
2019-04-30T01:58:53.690Z,25.44
2019-04-30T01:59:53.456Z,25.44
2019-04-30T02:00:53.356Z,25.54
2019-04-30T02:01:53.252Z,25.63
2019-04-30T02:02:53.155Z,25.54
2019-04-30T02:03:53.071Z,25.54
2019-04-30T02:04:52.956Z,25.25
2019-04-30T02:05:52.965Z,24.87
2019-04-30T02:06:52.761Z,24.21
2019-04-30T02:07:52.661Z,23.35
2019-04-30T02:08:52.576Z,22.50
2019-04-30T02:09:52.459Z,21.83
2019-04-30T02:10:52.361Z,21.55
2019-04-30T02:11:52.264Z,22.02
2019-04-30T02:12:52.280Z,22.60
2019-04-30T02:13:52.081Z,23.35
2019-04-30T02:14:51.975Z,23.73
2019-04-30T02:15:51.866Z,25.44
2019-04-30T02:16:51.774Z,28.00
2019-04-30T02:17:51.670Z,29.71
2019-04-30T02:18:51.588Z,31.90
2019-04-30T02:19:56.524Z,33.13
2019-04-30T02:20:51.373Z,33.23
2019-04-30T02:21:51.274Z,34.75
2019-04-30T02:22:51.174Z,37.59
2019-04-30T02:23:51.089Z,39.59
2019-04-30T02:24:50.977Z,40.34
2019-04-30T02:25:50.880Z,41.58
2019-04-30T02:26:50.885Z,41.49
2019-04-30T02:27:50.679Z,40.99
2019-04-30T02:28:50.596Z,40.14
2019-04-30T02:29:50.486Z,39.95
2019-04-30T02:30:50.804Z,40.80
2019-04-30T02:31:50.562Z,41.27
2019-04-30T02:32:52.658Z,40.70
2019-04-30T02:33:50.365Z,41.37
2019-04-30T02:34:49.988Z,41.66
2019-04-30T02:35:50.190Z,43.93
2019-04-30T02:36:50.027Z,44.69
2019-04-30T02:37:50.550Z,44.12
2019-04-30T02:38:49.618Z,43.84
2019-04-30T02:39:50.328Z,42.60
2019-04-30T02:40:49.998Z,43.08
2019-04-30T02:41:50.574Z,42.60
2019-04-30T02:42:49.780Z,41.56
2019-04-30T02:43:49.795Z,41.18
2019-04-30T02:44:50.365Z,39.85
2019-04-30T02:45:49.812Z,39.28
2019-04-30T02:46:50.455Z,37.19
2019-04-30T02:47:49.995Z,36.72
2019-04-30T02:48:50.450Z,35.68
2019-04-30T02:49:50.026Z,34.82
2019-04-30T02:50:49.142Z,33.50
2019-04-30T02:51:49.913Z,32.73
2019-04-30T02:52:50.477Z,32.73
2019-04-30T02:53:50.193Z,32.26
2019-04-30T02:54:49.974Z,32.45
2019-04-30T02:55:49.929Z,32.73
2019-04-30T02:56:50.440Z,32.26
2019-04-30T02:57:49.748Z,32.26
2019-04-30T02:58:50.186Z,32.73
2019-04-30T02:59:49.675Z,33.40
2019-04-30T03:00:49.606Z,34.23
2019-04-30T03:01:49.918Z,34.52
2019-04-30T03:02:47.199Z,34.52
2019-04-30T03:03:49.497Z,34.71
2019-04-30T03:04:47.013Z,34.90
2019-04-30T03:05:49.547Z,34.80
2019-04-30T03:06:46.797Z,35.57
2019-04-30T03:07:46.694Z,36.32
2019-04-30T03:08:46.597Z,36.42
2019-04-30T03:09:46.512Z,36.32
2019-04-30T03:10:46.396Z,36.99
2019-04-30T03:11:46.297Z,37.08
2019-04-30T03:12:46.197Z,37.18
2019-04-30T03:13:46.094Z,37.74
2019-04-30T03:14:46.010Z,37.63
2019-04-30T03:15:45.897Z,37.54
2019-04-30T03:16:45.817Z,37.82
2019-04-30T03:17:45.699Z,37.92
2019-04-30T03:18:45.594Z,38.10
2019-04-30T03:19:45.509Z,38.01
2019-04-30T03:20:45.395Z,38.20
2019-04-30T03:21:45.296Z,38.67
2019-04-30T03:22:45.208Z,39.15
2019-04-30T03:23:45.096Z,39.53
2019-04-30T03:24:45.013Z,40.28
2019-04-30T03:25:44.892Z,40.66
2019-04-30T03:26:44.792Z,41.14
2019-04-30T03:27:44.693Z,41.42
2019-04-30T03:28:44.593Z,42.47
2019-04-30T03:29:44.513Z,42.85
2019-04-30T03:30:44.423Z,42.47
2019-04-30T03:31:45.693Z,41.89
2019-04-30T03:32:50.317Z,41.89
2019-04-30T03:33:44.126Z,41.52
2019-04-30T03:34:44.016Z,40.85
2019-04-30T03:35:47.825Z,41.24
2019-04-30T03:36:43.790Z,41.33
2019-04-30T03:37:44.006Z,41.14
2019-04-30T03:38:43.588Z,40.76
2019-04-30T03:39:43.502Z,39.90
2019-04-30T03:40:43.386Z,39.24
2019-04-30T03:41:43.301Z,38.77
2019-04-30T03:42:43.184Z,38.01
2019-04-30T03:43:43.084Z,37.35
2019-04-30T03:44:42.986Z,36.78
2019-04-30T03:45:42.896Z,36.59
2019-04-30T03:46:42.793Z,36.11
2019-04-30T03:47:43.162Z,35.64
2019-04-30T03:48:42.584Z,34.98
2019-04-30T03:49:42.485Z,35.17
2019-04-30T03:50:55.534Z,34.88
2019-04-30T03:51:42.284Z,34.59
2019-04-30T03:52:42.178Z,34.59
2019-04-30T03:53:42.659Z,34.22
2019-04-30T03:54:41.978Z,34.41
2019-04-30T03:55:41.893Z,34.98
2019-04-30T03:56:41.777Z,35.36
2019-04-30T03:57:41.676Z,35.45
2019-04-30T03:58:41.575Z,34.98
2019-04-30T03:59:41.473Z,35.17
2019-04-30T04:00:42.494Z,34.50
2019-04-30T04:01:41.281Z,34.50
2019-04-30T04:02:41.178Z,34.22
2019-04-30T04:03:42.281Z,33.65
2019-04-30T04:04:41.080Z,33.17
2019-04-30T04:05:40.886Z,33.65
2019-04-30T04:06:40.779Z,33.56
2019-04-30T04:07:40.678Z,33.17
2019-04-30T04:08:43.215Z,32.98
2019-04-30T04:09:40.468Z,32.79
2019-04-30T04:10:40.554Z,32.89
2019-04-30T04:11:40.383Z,33.08
2019-04-30T04:12:40.170Z,32.79
2019-04-30T04:13:40.178Z,32.89
2019-04-30T04:14:39.968Z,33.08
2019-04-30T04:15:40.191Z,32.79
2019-04-30T04:16:41.084Z,32.60
2019-04-30T04:17:39.930Z,33.17
2019-04-30T04:18:40.191Z,34.31
2019-04-30T04:19:39.465Z,35.36
2019-04-30T04:20:39.553Z,37.44
2019-04-30T04:21:39.445Z,39.24
2019-04-30T04:22:40.318Z,40.19
2019-04-30T04:23:39.933Z,40.00
2019-04-30T04:24:40.109Z,40.66
2019-04-30T04:25:39.933Z,43.32
2019-04-30T04:26:40.809Z,43.88
2019-04-30T04:27:39.308Z,44.27
2019-04-30T04:28:43.054Z,45.12
2019-04-30T04:29:40.341Z,46.16
2019-04-30T04:30:39.221Z,45.69
2019-04-30T04:31:39.532Z,45.88
2019-04-30T04:32:40.663Z,46.73
2019-04-30T04:33:39.556Z,46.83
2019-04-30T04:34:40.025Z,47.02
2019-04-30T04:35:39.281Z,46.92
2019-04-30T04:36:39.960Z,45.97
2019-04-30T04:37:39.439Z,45.88
2019-04-30T04:38:40.053Z,45.40
2019-04-30T04:39:38.916Z,45.21
2019-04-30T04:40:39.849Z,45.21
2019-04-30T04:41:39.728Z,44.55
2019-04-30T04:42:39.611Z,44.17
2019-04-30T04:43:37.059Z,44.74
2019-04-30T04:44:39.327Z,44.84
2019-04-30T04:45:36.875Z,44.17
2019-04-30T04:46:36.861Z,45.12
2019-04-30T04:47:36.657Z,45.12
2019-04-30T04:48:38.978Z,45.78
2019-04-30T04:49:36.451Z,46.09
2019-04-30T04:50:36.381Z,45.78
2019-04-30T04:51:39.409Z,45.88
2019-04-30T04:52:36.153Z,45.88
2019-04-30T04:53:36.161Z,45.81
2019-04-30T04:54:35.953Z,45.97
2019-04-30T04:55:35.854Z,46.09
2019-04-30T04:56:35.767Z,45.71
2019-04-30T04:57:35.650Z,46.66
2019-04-30T04:58:35.548Z,48.08
2019-04-30T04:59:35.456Z,48.46
2019-04-30T05:00:35.482Z,49.03
2019-04-30T05:01:35.264Z,48.82
2019-04-30T05:02:35.150Z,48.36
2019-04-30T05:03:35.049Z,48.06
2019-04-30T05:04:34.949Z,47.13
2019-04-30T05:05:34.850Z,47.13
2019-04-30T05:06:34.769Z,47.52
2019-04-30T05:07:34.754Z,48.27
2019-04-30T05:08:34.547Z,48.27
2019-04-30T05:09:34.447Z,49.41
2019-04-30T05:10:34.346Z,49.60
2019-04-30T05:11:34.263Z,50.45
2019-04-30T05:12:34.148Z,50.93
2019-04-30T05:13:34.734Z,50.83
2019-04-30T05:14:34.061Z,50.45
2019-04-30T05:15:33.850Z,50.74
2019-04-30T05:16:34.511Z,50.64
2019-04-30T05:17:33.647Z,51.03
2019-04-30T05:18:33.590Z,51.03
2019-04-30T05:19:33.449Z,50.83
2019-04-30T05:20:33.347Z,51.12
2019-04-30T05:21:42.077Z,51.21
2019-04-30T05:22:33.149Z,51.12
2019-04-30T05:23:33.051Z,51.68
2019-04-30T05:24:32.951Z,52.35
2019-04-30T05:25:32.851Z,52.92
2019-04-30T05:26:32.765Z,53.02
2019-04-30T05:27:32.653Z,53.77
2019-04-30T05:28:32.552Z,54.56
2019-04-30T05:29:32.451Z,55.70
2019-04-30T05:30:32.356Z,56.74
2019-04-30T05:31:32.269Z,57.31
2019-04-30T05:32:32.157Z,58.17
2019-04-30T05:33:32.057Z,58.92
2019-04-30T05:34:31.958Z,59.21
2019-04-30T05:35:31.856Z,60.06
2019-04-30T05:36:31.776Z,59.68
2019-04-30T05:37:31.657Z,61.01
2019-04-30T05:38:31.560Z,60.82
2019-04-30T05:39:31.462Z,61.68
2019-04-30T05:40:31.359Z,61.87
2019-04-30T05:41:31.276Z,62.05
2019-04-30T05:42:31.163Z,63.20
2019-04-30T05:43:31.067Z,64.71
2019-04-30T05:44:30.965Z,64.62
2019-04-30T05:45:33.557Z,65.66
2019-04-30T05:46:30.788Z,66.27
2019-04-30T05:47:30.674Z,65.22
2019-04-30T05:48:30.572Z,66.74
2019-04-30T05:49:30.476Z,67.02
2019-04-30T05:50:30.375Z,66.83
2019-04-30T05:51:30.293Z,67.21
2019-04-30T05:52:30.179Z,67.12
2019-04-30T05:53:30.084Z,67.21
2019-04-30T05:54:29.980Z,68.07
2019-04-30T05:55:29.883Z,68.35
2019-04-30T05:56:30.444Z,67.97
2019-04-30T05:57:29.687Z,69.02
2019-04-30T05:58:30.104Z,68.54
2019-04-30T05:59:29.491Z,68.92
2019-04-30T06:00:30.555Z,69.87
2019-04-30T06:01:29.638Z,70.73
2019-04-30T06:02:33.580Z,70.73
2019-04-30T06:03:32.985Z,70.92
2019-04-30T06:04:29.462Z,71.39
2019-04-30T06:05:28.900Z,71.30
2019-04-30T06:06:29.122Z,70.44
2019-04-30T06:07:29.946Z,71.39
2019-04-30T06:08:29.217Z,70.82
2019-04-30T06:09:31.619Z,71.30
2019-04-30T06:10:29.435Z,71.01
2019-04-30T06:11:29.252Z,73.19
2019-04-30T06:12:28.469Z,72.72
2019-04-30T06:13:28.749Z,72.15
2019-04-30T06:14:28.656Z,73.19
2019-04-30T06:15:29.090Z,73.48
2019-04-30T06:16:29.694Z,73.52
2019-04-30T06:17:29.347Z,74.18
2019-04-30T06:18:28.707Z,73.90
2019-04-30T06:19:29.240Z,74.47
2019-04-30T06:20:28.771Z,75.04
2019-04-30T06:21:29.377Z,74.71
2019-04-30T06:22:28.789Z,75.28
2019-04-30T06:23:29.262Z,74.71
2019-04-30T06:24:28.611Z,75.47
2019-04-30T06:25:32.102Z,74.81
2019-04-30T06:26:26.849Z,75.67
2019-04-30T06:27:29.011Z,75.85
2019-04-30T06:28:26.655Z,75.28
2019-04-30T06:29:26.556Z,76.23
2019-04-30T06:30:26.567Z,75.76
2019-04-30T06:31:34.701Z,76.14
2019-04-30T06:32:26.278Z,75.19
2019-04-30T06:33:26.166Z,76.42
2019-04-30T06:34:26.085Z,75.42
2019-04-30T06:35:25.971Z,76.08
2019-04-30T06:36:25.874Z,76.65
2019-04-30T06:37:25.901Z,77.79
2019-04-30T06:38:25.682Z,78.40
2019-04-30T06:39:25.583Z,78.78
2019-04-30T06:40:25.487Z,78.21
2019-04-30T06:41:25.390Z,78.72
2019-04-30T06:42:25.308Z,80.63
2019-04-30T06:43:25.198Z,81.86
2019-04-30T06:44:34.962Z,81.29
2019-04-30T06:45:25.001Z,81.71
2019-04-30T06:46:24.908Z,82.00
2019-04-30T06:47:32.837Z,81.56
2019-04-30T06:48:24.719Z,82.86
2019-04-30T06:49:24.625Z,84.85
2019-04-30T06:50:24.522Z,84.28
2019-04-30T06:51:24.531Z,83.29
2019-04-30T06:52:24.345Z,83.76
2019-04-30T06:53:24.237Z,84.05
2019-04-30T06:54:24.147Z,83.15
2019-04-30T06:55:24.045Z,83.91
2019-04-30T06:56:23.953Z,83.06
2019-04-30T06:57:23.868Z,84.29
2019-04-30T06:58:23.868Z,84.29
2019-04-30T06:59:23.665Z,85.10
2019-04-30T07:00:32.778Z,83.48
2019-04-30T07:01:23.474Z,84.66
2019-04-30T07:02:23.395Z,87.04
2019-04-30T07:03:23.283Z,85.71
2019-04-30T07:04:23.188Z,85.28
2019-04-30T07:05:23.198Z,85.18
2019-04-30T07:06:29.772Z,85.94
2019-04-30T07:07:26.909Z,85.71
2019-04-30T07:08:22.812Z,87.04
2019-04-30T07:09:26.621Z,87.61
2019-04-30T07:10:22.622Z,88.18
2019-04-30T07:11:22.529Z,89.32
2019-04-30T07:12:27.683Z,89.80
2019-04-30T07:13:22.353Z,90.66
2019-04-30T07:14:22.248Z,89.70
2019-04-30T07:15:22.150Z,90.66
2019-04-30T07:16:22.060Z,90.18
2019-04-30T07:17:21.963Z,89.61
2019-04-30T07:18:21.881Z,89.61
2019-04-30T07:19:31.819Z,90.08
2019-04-30T07:20:21.682Z,90.61
2019-04-30T07:21:21.586Z,89.94
2019-04-30T07:22:36.698Z,91.37
2019-04-30T07:23:21.414Z,91.03
2019-04-30T07:24:21.306Z,93.41
2019-04-30T07:25:21.214Z,91.89
2019-04-30T07:26:24.452Z,93.03
2019-04-30T07:27:24.140Z,91.51
2019-04-30T07:28:20.944Z,92.27
2019-04-30T07:29:20.834Z,93.22
2019-04-30T07:30:20.741Z,92.08
2019-04-30T07:31:20.649Z,91.60
2019-04-30T07:32:20.682Z,92.89
2019-04-30T07:33:20.956Z,91.79
2019-04-30T07:34:20.388Z,91.65
2019-04-30T07:35:20.276Z,92.32
2019-04-30T07:36:20.181Z,91.94
2019-04-30T07:37:24.125Z,90.84
2019-04-30T07:38:20.010Z,91.51
2019-04-30T07:39:23.410Z,91.70
2019-04-30T07:40:19.808Z,90.84
2019-04-30T07:41:19.717Z,91.32
2019-04-30T07:42:19.622Z,91.89
2019-04-30T07:43:19.542Z,88.28
2019-04-30T07:44:31.216Z,92.32
2019-04-30T07:45:19.657Z,91.22
2019-04-30T07:46:20.022Z,91.84
2019-04-30T07:47:19.690Z,91.41
2019-04-30T07:48:25.872Z,91.79
2019-04-30T07:49:20.546Z,93.93
2019-04-30T07:50:21.572Z,92.22
2019-04-30T07:51:20.927Z,93.27
2019-04-30T07:52:21.296Z,93.84
2019-04-30T07:53:18.814Z,91.65
2019-04-30T07:54:19.013Z,93.74
2019-04-30T07:55:19.654Z,94.22
2019-04-30T07:56:25.710Z,93.70
2019-04-30T07:57:19.237Z,93.98
2019-04-30T07:58:20.525Z,94.84
2019-04-30T07:59:20.127Z,94.03
2019-04-30T08:00:19.315Z,96.41
2019-04-30T08:01:19.582Z,94.51
2019-04-30T08:02:20.570Z,94.89
2019-04-30T08:03:20.587Z,94.93
2019-04-30T08:04:18.843Z,95.03
2019-04-30T08:05:19.287Z,95.22
2019-04-30T08:06:19.010Z,94.70
2019-04-30T08:07:17.740Z,94.17
2019-04-30T08:08:24.379Z,94.89
2019-04-30T08:09:21.879Z,94.12
2019-04-30T08:10:18.794Z,94.79
2019-04-30T08:11:23.910Z,94.93
2019-04-30T08:12:25.631Z,94.74
2019-04-30T08:13:17.249Z,93.32
2019-04-30T08:14:18.494Z,95.37
2019-04-30T08:15:16.560Z,95.70
2019-04-30T08:16:18.598Z,94.79
2019-04-30T08:17:16.376Z,95.08
2019-04-30T08:18:16.285Z,95.65
2019-04-30T08:19:16.208Z,94.51
2019-04-30T08:20:16.103Z,94.98
2019-04-30T08:21:16.010Z,95.70
2019-04-30T08:22:15.919Z,95.03
2019-04-30T08:23:31.485Z,94.93
2019-04-30T08:24:15.737Z,95.03
2019-04-30T08:25:15.681Z,94.46
2019-04-30T08:26:15.553Z,96.51
2019-04-30T08:27:15.464Z,95.61
2019-04-30T08:28:15.374Z,94.70
2019-04-30T08:29:15.285Z,95.94
2019-04-30T08:30:25.634Z,95.70
2019-04-30T08:31:15.631Z,95.61
2019-04-30T08:32:15.007Z,95.12
2019-04-30T08:33:14.916Z,95.79
2019-04-30T08:34:14.824Z,94.70
2019-04-30T08:35:14.762Z,96.66
2019-04-30T08:36:14.648Z,95.17
2019-04-30T08:37:17.586Z,95.98
2019-04-30T08:38:14.461Z,95.61
2019-04-30T08:39:14.369Z,95.84
2019-04-30T08:40:14.292Z,95.84
2019-04-30T08:41:14.187Z,96.17
2019-04-30T08:42:14.097Z,96.17
2019-04-30T08:43:14.007Z,96.56
2019-04-30T08:44:13.915Z,97.42
2019-04-30T08:45:13.833Z,97.22
2019-04-30T08:46:13.735Z,96.84
2019-04-30T08:47:13.642Z,97.42
2019-04-30T08:48:13.557Z,96.56
2019-04-30T08:49:13.651Z,97.56
2019-04-30T08:50:13.444Z,98.47
2019-04-30T08:51:14.086Z,97.61
2019-04-30T08:52:13.190Z,97.61
2019-04-30T08:53:26.289Z,97.71
2019-04-30T08:54:13.007Z,97.75
2019-04-30T08:55:16.748Z,97.42
2019-04-30T08:56:12.827Z,97.13
2019-04-30T08:57:12.734Z,97.71
2019-04-30T08:58:15.166Z,97.61
2019-04-30T08:59:12.552Z,97.03
2019-04-30T09:00:14.963Z,98.03
2019-04-30T09:01:12.373Z,96.27
2019-04-30T09:02:15.836Z,96.27
2019-04-30T09:03:12.190Z,97.32
2019-04-30T09:04:12.099Z,97.75
2019-04-30T09:05:12.023Z,97.52
2019-04-30T09:06:11.922Z,97.80
2019-04-30T09:07:11.829Z,95.89
2019-04-30T09:08:11.737Z,95.89
2019-04-30T09:09:11.648Z,97.23
2019-04-30T09:10:11.574Z,97.52
2019-04-30T09:11:22.654Z,97.32
2019-04-30T09:12:11.379Z,97.28
2019-04-30T09:13:11.285Z,95.84
2019-04-30T09:14:11.196Z,96.17
2019-04-30T09:15:11.119Z,96.75
2019-04-30T09:16:11.016Z,97.13
2019-04-30T09:17:10.936Z,97.80
2019-04-30T09:18:12.643Z,97.23
2019-04-30T09:19:10.744Z,95.84
2019-04-30T09:20:11.094Z,96.42
2019-04-30T09:21:10.568Z,95.98
2019-04-30T09:22:15.019Z,96.94
2019-04-30T09:23:11.248Z,96.70
2019-04-30T09:24:10.295Z,97.37
2019-04-30T09:25:10.325Z,96.99
2019-04-30T09:26:10.116Z,95.41
2019-04-30T09:27:10.804Z,95.27
2019-04-30T09:28:09.937Z,96.03
2019-04-30T09:29:09.853Z,96.70
2019-04-30T09:30:10.382Z,97.33
2019-04-30T09:31:09.667Z,95.79
2019-04-30T09:32:09.683Z,95.98
2019-04-30T09:33:11.130Z,95.41
2019-04-30T09:34:17.172Z,96.47
2019-04-30T09:35:09.611Z,95.46
2019-04-30T09:36:09.332Z,95.03
2019-04-30T09:37:09.153Z,94.84
2019-04-30T09:38:09.235Z,96.61
2019-04-30T09:39:09.097Z,95.17
2019-04-30T09:40:17.638Z,94.36
2019-04-30T09:41:09.300Z,93.88
2019-04-30T09:42:09.264Z,93.02
2019-04-30T09:43:08.747Z,95.12
2019-04-30T09:44:10.030Z,94.50
2019-04-30T09:45:08.827Z,93.50
2019-04-30T09:46:18.969Z,94.36
2019-04-30T09:47:08.911Z,94.45
2019-04-30T09:48:09.411Z,94.36
2019-04-30T09:49:09.640Z,95.31
2019-04-30T09:50:09.139Z,94.50
2019-04-30T09:51:10.179Z,94.98
2019-04-30T09:52:09.072Z,95.61
2019-04-30T09:53:09.636Z,96.03
2019-04-30T09:54:11.688Z,94.50
2019-04-30T09:55:09.426Z,95.03
2019-04-30T09:56:09.421Z,96.42
2019-04-30T09:57:08.775Z,95.70
2019-04-30T09:58:16.215Z,95.79
2019-04-30T09:59:09.027Z,96.84
2019-04-30T10:00:08.955Z,97.71
2019-04-30T10:01:09.284Z,96.22
2019-04-30T10:02:09.156Z,96.03
2019-04-30T10:03:09.636Z,96.42
2019-04-30T10:04:07.027Z,94.98
2019-04-30T10:05:07.106Z,95.03
2019-04-30T10:06:06.571Z,94.55
2019-04-30T10:07:06.577Z,93.74
2019-04-30T10:08:06.378Z,93.93
2019-04-30T10:09:06.292Z,92.58
2019-04-30T10:10:08.874Z,92.01
2019-04-30T10:11:06.116Z,92.54
2019-04-30T10:12:06.040Z,92.25
2019-04-30T10:13:05.935Z,92.44
2019-04-30T10:14:05.959Z,91.82
2019-04-30T10:15:05.760Z,92.30
2019-04-30T10:16:05.675Z,91.86
2019-04-30T10:17:05.601Z,92.35
2019-04-30T10:18:05.496Z,91.92
2019-04-30T10:19:05.408Z,92.30
2019-04-30T10:20:05.444Z,93.26
2019-04-30T10:21:05.234Z,91.44
2019-04-30T10:22:05.167Z,91.19
2019-04-30T10:23:05.055Z,91.63
2019-04-30T10:24:14.826Z,91.10
2019-04-30T10:25:04.879Z,91.29
2019-04-30T10:26:04.791Z,90.81
2019-04-30T10:27:07.159Z,91.77
2019-04-30T10:28:04.624Z,91.86
2019-04-30T10:29:04.527Z,92.10
2019-04-30T10:30:04.438Z,91.86
2019-04-30T10:31:04.351Z,92.92
2019-04-30T10:32:04.280Z,92.25
2019-04-30T10:33:04.177Z,90.95
2019-04-30T10:34:04.089Z,90.05
2019-04-30T10:35:04.000Z,90.00
2019-04-30T10:36:03.914Z,90.28
2019-04-30T10:37:03.840Z,89.23
2019-04-30T10:38:03.737Z,89.37
2019-04-30T10:39:03.648Z,90.76
2019-04-30T10:40:03.562Z,91.77
2019-04-30T10:41:03.475Z,86.54
2019-04-30T10:42:03.402Z,85.68
2019-04-30T10:43:03.301Z,84.34
2019-04-30T10:44:03.211Z,86.30
2019-04-30T10:45:03.126Z,88.51
2019-04-30T10:46:03.037Z,86.78
2019-04-30T10:47:02.966Z,89.04
2019-04-30T10:48:02.860Z,89.65
2019-04-30T10:49:02.772Z,88.02
2019-04-30T10:50:02.687Z,90.86
2019-04-30T10:51:02.598Z,90.86
2019-04-30T10:52:02.513Z,91.91
2019-04-30T10:53:02.437Z,90.86
2019-04-30T10:54:02.336Z,91.38
2019-04-30T10:55:04.439Z,89.09
2019-04-30T10:56:02.161Z,89.90
2019-04-30T10:57:02.090Z,89.80
2019-04-30T10:58:01.987Z,90.09
2019-04-30T10:59:01.902Z,89.13
2019-04-30T11:00:01.815Z,89.23
2019-04-30T11:01:01.951Z,87.98
2019-04-30T11:02:01.640Z,89.56
2019-04-30T11:03:01.565Z,89.47
2019-04-30T11:04:01.466Z,89.85
2019-04-30T11:05:01.374Z,86.97
2019-04-30T11:06:01.287Z,87.70
2019-04-30T11:07:01.201Z,87.94
2019-04-30T11:08:01.128Z,87.17
2019-04-30T11:09:01.025Z,89.04
2019-04-30T11:10:00.942Z,87.65
2019-04-30T11:11:00.850Z,87.84
2019-04-30T11:12:03.021Z,85.83
2019-04-30T11:13:00.689Z,86.02
2019-04-30T11:14:00.586Z,85.83
2019-04-30T11:15:00.523Z,85.97
2019-04-30T11:16:12.175Z,85.97
2019-04-30T11:17:00.664Z,85.58
2019-04-30T11:18:00.458Z,83.82
2019-04-30T11:19:00.196Z,84.01
2019-04-30T11:20:00.264Z,84.63
2019-04-30T11:21:00.077Z,85.53
2019-04-30T11:22:00.155Z,83.33
2019-04-30T11:23:00.014Z,85.34
2019-04-30T11:23:59.853Z,84.52
2019-04-30T11:25:02.631Z,81.98
2019-04-30T11:26:00.434Z,82.31
2019-04-30T11:27:00.521Z,80.01
2019-04-30T11:27:59.811Z,83.85
2019-04-30T11:28:59.462Z,83.14
2019-04-30T11:30:03.189Z,83.86
2019-04-30T11:30:59.210Z,82.46
2019-04-30T11:31:59.157Z,84.48
2019-04-30T11:32:59.140Z,85.05
2019-04-30T11:33:58.839Z,83.29
2019-04-30T11:34:58.750Z,84.05
2019-04-30T11:36:03.098Z,83.38
2019-04-30T11:36:58.673Z,84.53
2019-04-30T11:37:58.502Z,85.15
2019-04-30T11:38:58.710Z,83.91
2019-04-30T11:39:58.319Z,83.33
2019-04-30T11:40:58.477Z,83.56
2019-04-30T11:41:58.162Z,83.98
2019-04-30T11:42:58.069Z,84.37
2019-04-30T11:43:59.446Z,79.97
2019-04-30T11:44:58.696Z,80.45
2019-04-30T11:46:00.069Z,80.30
2019-04-30T11:46:59.472Z,78.38
2019-04-30T11:48:00.402Z,80.30
2019-04-30T11:48:58.695Z,79.91
2019-04-30T11:49:57.453Z,81.16
2019-04-30T11:50:59.429Z,82.31
2019-04-30T11:51:57.297Z,81.74
2019-04-30T11:53:14.001Z,83.22
2019-04-30T11:53:59.200Z,81.59
2019-04-30T11:54:57.007Z,79.61
2019-04-30T11:55:59.086Z,78.45
2019-04-30T11:56:58.677Z,76.82
2019-04-30T11:57:56.876Z,80.28
2019-04-30T11:58:58.745Z,78.84
2019-04-30T11:59:56.575Z,77.69
2019-04-30T12:00:56.486Z,75.45
2019-04-30T12:01:56.400Z,76.69
2019-04-30T12:02:56.317Z,76.37
2019-04-30T12:03:56.244Z,77.61
2019-04-30T12:04:56.252Z,79.05
2019-04-30T12:05:56.073Z,81.84
2019-04-30T12:06:55.973Z,82.60
2019-04-30T12:07:55.881Z,82.60
2019-04-30T12:08:55.830Z,80.53
2019-04-30T12:09:55.712Z,78.96
2019-04-30T12:10:55.630Z,79.86
2019-04-30T12:11:55.638Z,79.67
2019-04-30T12:12:55.451Z,80.49
2019-04-30T12:13:55.379Z,78.90
2019-04-30T12:14:55.275Z,77.95
2019-04-30T12:15:55.190Z,78.44
2019-04-30T12:16:55.102Z,77.95
2019-04-30T12:17:55.019Z,79.53
2019-04-30T12:18:55.055Z,78.19
2019-04-30T12:19:54.860Z,79.36
2019-04-30T12:20:54.758Z,77.82
2019-04-30T12:21:54.669Z,76.04
2019-04-30T12:22:54.585Z,76.56
2019-04-30T12:23:54.514Z,75.70
2019-04-30T12:25:02.693Z,74.31
2019-04-30T12:25:54.430Z,75.75
2019-04-30T12:26:54.237Z,76.46
2019-04-30T12:27:54.149Z,78.09
2019-04-30T12:28:54.077Z,79.14
2019-04-30T12:29:53.976Z,77.80
2019-04-30T12:30:53.890Z,74.44
2019-04-30T12:31:53.806Z,75.50
2019-04-30T12:32:53.828Z,74.60
2019-04-30T12:33:53.643Z,74.37
2019-04-30T12:34:53.543Z,74.79
2019-04-30T12:35:53.453Z,76.00
2019-04-30T12:36:53.366Z,77.58
2019-04-30T12:37:53.282Z,79.44
2019-04-30T12:38:53.207Z,77.71
2019-04-30T12:39:53.215Z,75.06
2019-04-30T12:40:53.022Z,72.72
2019-04-30T12:41:52.931Z,72.24
2019-04-30T12:42:52.845Z,73.77
2019-04-30T12:43:52.763Z,74.16
2019-04-30T12:44:52.684Z,75.89
2019-04-30T12:46:02.214Z,76.23
2019-04-30T12:46:52.494Z,77.09
2019-04-30T12:47:52.415Z,74.44
2019-04-30T12:48:52.324Z,75.31
2019-04-30T12:49:52.253Z,72.43
2019-04-30T12:50:52.149Z,72.81